createdAt,value
2023-03-05T00:02:37.584Z,37.52
2023-03-05T00:05:10.785Z,37.69
2023-03-05T00:07:55.526Z,37.11
2023-03-05T00:10:28.353Z,38.19
2023-03-05T00:13:10.252Z,37.81
2023-03-05T00:15:43.154Z,37.07
2023-03-05T00:18:27.816Z,37.83
2023-03-05T00:21:00.562Z,37.05
2023-03-05T00:23:41.962Z,37.99
2023-03-05T00:26:14.535Z,38.12
2023-03-05T00:29:03.770Z,37.92
2023-03-05T00:31:51.218Z,37.63
2023-03-05T00:34:32.728Z,37.80
2023-03-05T00:37:05.420Z,37.21
2023-03-05T00:39:47.281Z,38.23
2023-03-05T00:42:20.380Z,37.59
2023-03-05T00:45:02.292Z,37.35
2023-03-05T00:47:36.088Z,38.43
2023-03-05T00:50:20.265Z,38.06
2023-03-05T00:52:53.665Z,37.70
2023-03-05T00:55:36.131Z,38.22
2023-03-05T00:58:08.680Z,38.03
2023-03-05T01:00:53.504Z,38.21
2023-03-05T01:03:26.476Z,37.36
2023-03-05T01:06:13.197Z,37.44
2023-03-05T01:08:46.189Z,37.43
2023-03-05T01:11:25.484Z,38.07
2023-03-05T01:13:58.013Z,38.15
2023-03-05T01:16:42.319Z,38.08
2023-03-05T01:19:16.461Z,37.65
2023-03-05T01:21:55.840Z,37.45
2023-03-05T01:24:30.924Z,38.25
2023-03-05T01:27:12.634Z,38.14
2023-03-05T01:29:45.288Z,37.65
2023-03-05T01:35:23.456Z,37.98
2023-03-05T01:37:56.674Z,38.51
2023-03-05T01:40:31.542Z,37.63
2023-03-05T01:43:13.159Z,38.51
2023-03-05T01:46:13.466Z,38.64
2023-03-05T01:48:52.697Z,37.88
2023-03-05T01:51:31.455Z,38.10
2023-03-05T01:54:08.737Z,37.67
2023-03-05T01:56:43.549Z,37.85
2023-03-05T01:59:27.189Z,38.05
2023-03-05T02:02:00.794Z,37.87
2023-03-05T02:04:52.660Z,37.79
2023-03-05T02:07:40.141Z,38.14
2023-03-05T02:10:29.804Z,38.09
2023-03-05T02:13:10.182Z,37.54
2023-03-05T02:15:50.951Z,38.82
2023-03-05T02:18:24.263Z,38.34
2023-03-05T02:21:10.360Z,37.66
2023-03-05T02:23:42.928Z,38.13
2023-03-05T02:26:24.012Z,37.68
2023-03-05T02:29:01.684Z,38.33
2023-03-05T02:31:38.945Z,38.27
2023-03-05T02:34:17.752Z,37.71
2023-03-05T02:36:50.735Z,38.05
2023-03-05T02:39:35.506Z,38.23
2023-03-05T02:42:08.230Z,37.67
2023-03-05T02:44:50.272Z,37.79
2023-03-05T02:47:23.030Z,38.53
2023-03-05T02:50:10.923Z,38.43
2023-03-05T02:52:43.547Z,38.03
2023-03-05T02:55:25.293Z,37.69
2023-03-05T02:57:57.955Z,38.18
2023-03-05T03:00:39.574Z,38.36
2023-03-05T03:03:12.442Z,37.87
2023-03-05T03:05:55.137Z,38.50
2023-03-05T03:08:27.852Z,38.17
2023-03-05T03:11:15.276Z,37.67
2023-03-05T03:13:48.059Z,37.73
2023-03-05T03:16:29.736Z,38.51
2023-03-05T03:19:02.404Z,38.15
2023-03-05T03:21:46.979Z,37.88
2023-03-05T03:24:19.641Z,37.80
2023-03-05T03:27:01.827Z,38.21
2023-03-05T03:29:34.843Z,37.83
2023-03-05T03:32:17.045Z,38.08
2023-03-05T03:34:49.861Z,38.53
2023-03-05T03:37:22.513Z,38.20
2023-03-05T03:39:55.261Z,38.10
2023-03-05T03:42:28.186Z,38.08
2023-03-05T03:45:04.436Z,38.73
2023-03-05T03:47:39.994Z,38.05
2023-03-05T03:50:12.667Z,38.76
2023-03-05T03:52:57.462Z,38.36
2023-03-05T03:55:29.982Z,38.45
2023-03-05T03:58:09.866Z,38.04
2023-03-05T04:00:42.563Z,37.60
2023-03-05T04:03:15.134Z,38.13
2023-03-05T04:05:56.846Z,38.07
2023-03-05T04:08:29.437Z,38.62
2023-03-05T04:11:11.417Z,37.84
2023-03-05T04:13:44.296Z,38.43
2023-03-05T04:16:26.733Z,38.80
2023-03-05T04:18:59.631Z,38.20
2023-03-05T04:21:47.649Z,38.59
2023-03-05T04:24:20.235Z,38.74
2023-03-05T04:27:08.174Z,38.62
2023-03-05T04:29:41.065Z,38.28
2023-03-05T04:32:26.298Z,38.69
2023-03-05T04:34:59.295Z,38.78
2023-03-05T04:37:38.006Z,37.95
2023-03-05T04:40:11.585Z,38.45
2023-03-05T04:42:56.649Z,38.59
2023-03-05T04:45:29.301Z,38.31
2023-03-05T04:48:27.060Z,38.36
2023-03-05T04:51:08.697Z,38.74
2023-03-05T04:53:41.217Z,38.50
2023-03-05T04:56:22.812Z,38.40
2023-03-05T04:58:55.406Z,38.32
2023-03-05T05:01:40.517Z,38.06
2023-03-05T05:04:13.132Z,38.23
2023-03-05T05:06:56.996Z,38.54
2023-03-05T05:09:35.831Z,38.67
2023-03-05T05:12:10.589Z,38.15
2023-03-05T05:14:53.128Z,37.96
2023-03-05T05:17:26.232Z,38.43
2023-03-05T05:20:11.244Z,38.76
2023-03-05T05:22:44.462Z,38.16
2023-03-05T05:25:24.899Z,38.43
2023-03-05T05:27:57.474Z,38.00
2023-03-05T05:30:41.892Z,38.31
2023-03-05T05:33:14.454Z,38.18
2023-03-05T05:35:56.410Z,38.26
2023-03-05T05:38:28.905Z,38.31
2023-03-05T05:41:22.708Z,38.87
2023-03-05T05:47:09.404Z,38.29
2023-03-05T05:49:42.158Z,38.57
2023-03-05T05:52:21.240Z,38.08
2023-03-05T05:54:53.990Z,38.37
2023-03-05T05:57:39.896Z,38.51
2023-03-05T06:00:15.120Z,38.45
2023-03-05T06:02:54.204Z,38.60
2023-03-05T06:05:26.973Z,38.07
2023-03-05T06:08:11.945Z,38.50
2023-03-05T06:10:44.923Z,38.77
2023-03-05T06:13:33.193Z,38.62
2023-03-05T06:16:12.105Z,38.53
2023-03-05T06:18:52.173Z,38.59
2023-03-05T06:21:25.010Z,38.06
2023-03-05T06:24:03.834Z,38.12
2023-03-05T06:26:36.680Z,38.67
2023-03-05T06:29:21.499Z,38.43
2023-03-05T06:31:54.091Z,38.34
2023-03-05T06:34:36.005Z,38.52
2023-03-05T06:37:08.653Z,38.75
2023-03-05T06:39:52.818Z,38.39
2023-03-05T06:42:25.641Z,38.00
2023-03-05T06:44:58.465Z,38.12
2023-03-05T06:47:31.374Z,38.18
2023-03-05T06:50:32.123Z,38.41
2023-03-05T06:53:18.902Z,38.74
2023-03-05T06:55:53.367Z,38.07
2023-03-05T06:58:31.720Z,38.15
2023-03-05T07:01:07.556Z,37.79
2023-03-05T07:03:52.026Z,37.69
2023-03-05T07:06:24.979Z,38.29
2023-03-05T07:09:06.605Z,37.38
2023-03-05T07:11:39.148Z,38.11
2023-03-05T07:14:23.976Z,37.99
2023-03-05T07:16:56.792Z,37.88
2023-03-05T07:19:39.126Z,38.18
2023-03-05T07:22:11.633Z,37.71
2023-03-05T07:24:53.747Z,37.54
2023-03-05T07:27:26.484Z,38.01
2023-03-05T07:30:14.023Z,38.13
2023-03-05T07:32:58.805Z,37.47
2023-03-05T07:35:31.465Z,37.10
2023-03-05T07:38:16.133Z,37.79
2023-03-05T07:40:50.469Z,37.60
2023-03-05T07:43:35.299Z,37.81
2023-03-05T07:46:25.817Z,36.78
2023-03-05T07:48:59.266Z,36.90
2023-03-05T07:51:37.973Z,36.81
2023-03-05T07:54:11.142Z,36.87
2023-03-05T07:56:54.614Z,36.99
2023-03-05T07:59:27.323Z,36.79
2023-03-05T08:02:02.856Z,36.49
2023-03-05T08:04:35.411Z,37.13
2023-03-05T08:07:20.362Z,37.11
2023-03-05T08:09:52.960Z,36.54
2023-03-05T08:12:37.486Z,37.52
2023-03-05T08:15:10.499Z,36.65
2023-03-05T08:17:53.782Z,37.05
2023-03-05T08:20:26.555Z,37.06
2023-03-05T08:23:08.536Z,37.23
2023-03-05T08:25:41.151Z,37.28
2023-03-05T08:28:14.028Z,37.04
2023-03-05T08:30:49.006Z,36.44
2023-03-05T08:33:21.628Z,37.24
2023-03-05T08:35:59.840Z,36.95
2023-03-05T08:38:32.538Z,37.23
2023-03-05T08:41:19.112Z,37.67
2023-03-05T08:43:51.993Z,36.28
2023-03-05T08:46:42.976Z,36.41
2023-03-05T08:49:37.573Z,37.26
2023-03-05T08:52:27.329Z,36.51
2023-03-05T08:55:00.192Z,36.78
2023-03-05T08:57:44.181Z,36.60
2023-03-05T09:00:17.370Z,36.25
2023-03-05T09:02:57.168Z,37.50
2023-03-05T09:05:29.955Z,36.84
2023-03-05T09:08:14.828Z,37.05
2023-03-05T09:10:47.375Z,36.36
2023-03-05T09:13:32.975Z,37.30
2023-03-05T09:16:20.276Z,36.78
2023-03-05T09:18:52.887Z,36.64
2023-03-05T09:21:35.005Z,36.64
2023-03-05T09:24:33.716Z,37.13
2023-03-05T09:27:07.390Z,36.98
2023-03-05T09:29:46.056Z,36.49
2023-03-05T09:32:51.372Z,36.59
2023-03-05T09:35:33.376Z,36.27
2023-03-05T09:38:32.145Z,37.08
2023-03-05T09:41:51.447Z,36.03
2023-03-05T09:44:52.216Z,37.29
2023-03-05T09:48:23.215Z,37.09
2023-03-05T09:51:03.979Z,36.04
2023-03-05T09:54:05.286Z,36.63
2023-03-05T09:57:20.994Z,36.37
2023-03-05T10:00:20.036Z,36.61
2023-03-05T10:03:06.710Z,36.79
2023-03-05T10:06:53.119Z,36.38
2023-03-05T10:10:22.388Z,36.57
2023-03-05T10:13:44.937Z,36.32
2023-03-05T10:17:25.385Z,36.55
2023-03-05T10:20:50.552Z,36.92
2023-03-05T10:24:03.720Z,36.13
2023-03-05T10:27:08.033Z,36.07
2023-03-05T10:30:43.418Z,36.26
2023-03-05T10:33:56.909Z,36.38
2023-03-05T10:37:13.956Z,36.24
2023-03-05T10:40:40.450Z,36.01
2023-03-05T10:43:58.731Z,36.51
2023-03-05T10:46:47.932Z,35.78
2023-03-05T10:49:40.337Z,36.04
2023-03-05T10:52:48.703Z,36.54
2023-03-05T10:55:46.378Z,35.88
2023-03-05T10:58:19.057Z,35.54
2023-03-05T11:01:28.505Z,36.29
2023-03-05T11:04:07.755Z,36.03
2023-03-05T11:06:51.841Z,36.25
2023-03-05T11:09:32.541Z,36.01
2023-03-05T11:12:14.737Z,36.09
2023-03-05T11:15:10.303Z,36.64
2023-03-05T11:17:53.511Z,35.77
2023-03-05T11:20:45.414Z,36.91
2023-03-05T11:23:43.521Z,36.96
2023-03-05T11:27:17.615Z,37.01
2023-03-05T11:29:56.486Z,37.09
2023-03-05T11:32:32.193Z,36.34
2023-03-05T11:35:43.925Z,36.54
2023-03-05T11:38:28.216Z,36.82
2023-03-05T11:41:11.155Z,36.49
2023-03-05T11:43:54.383Z,36.25
2023-03-05T11:46:44.989Z,36.62
2023-03-05T11:49:26.787Z,36.74
2023-03-05T11:52:22.204Z,36.56
2023-03-05T11:55:32.896Z,36.58
2023-03-05T11:58:27.428Z,36.30
2023-03-05T12:01:01.767Z,36.31
2023-03-05T12:03:38.642Z,36.76
2023-03-05T12:06:48.454Z,36.04
2023-03-05T12:09:42.165Z,37.00
2023-03-05T12:12:36.128Z,36.73
2023-03-05T12:15:17.802Z,36.57
2023-03-05T12:18:18.162Z,36.28
2023-03-05T12:21:33.321Z,36.15
2023-03-05T12:24:26.025Z,36.08
2023-03-05T12:27:03.371Z,36.44
2023-03-05T12:29:47.464Z,36.43
2023-03-05T12:32:23.182Z,36.40
2023-03-05T12:34:55.737Z,36.21
2023-03-05T12:37:28.384Z,36.95
2023-03-05T12:40:12.261Z,36.08
2023-03-05T12:42:46.811Z,36.58
2023-03-05T12:45:22.296Z,36.80
2023-03-05T12:50:43.126Z,35.88
2023-03-05T12:53:20.282Z,36.43
2023-03-05T12:56:05.885Z,36.68
2023-03-05T12:59:04.192Z,36.31
2023-03-05T13:01:56.222Z,36.03
2023-03-05T13:04:45.100Z,36.30
2023-03-05T13:07:33.310Z,36.01
2023-03-05T13:10:38.699Z,36.60
2023-03-05T13:13:31.285Z,36.46
2023-03-05T13:16:24.383Z,36.28
2023-03-05T13:19:04.048Z,36.60
2023-03-05T13:24:24.366Z,36.83
2023-03-05T13:27:37.020Z,36.87
2023-03-05T13:30:36.469Z,36.53
2023-03-05T13:33:19.773Z,36.15
2023-03-05T13:35:54.084Z,36.13
2023-03-05T13:38:40.044Z,36.33
2023-03-05T13:41:15.912Z,36.32
2023-03-05T13:43:58.763Z,36.38
2023-03-05T13:46:39.077Z,36.03
2023-03-05T13:49:24.535Z,35.86
2023-03-05T13:52:04.565Z,35.81
2023-03-05T13:54:37.528Z,36.24
2023-03-05T13:57:53.087Z,36.63
2023-03-05T14:00:36.690Z,36.56
2023-03-05T14:03:24.699Z,36.58
2023-03-05T14:06:12.092Z,36.57
2023-03-05T14:09:05.758Z,36.16
2023-03-05T14:11:41.854Z,35.97
2023-03-05T14:14:19.149Z,36.33
2023-03-05T14:17:10.567Z,36.03
2023-03-05T14:20:28.812Z,36.05
2023-03-05T14:23:02.513Z,35.74
2023-03-05T14:25:40.129Z,35.93
2023-03-05T14:28:18.701Z,36.61
2023-03-05T14:30:55.880Z,35.71
2023-03-05T14:33:32.921Z,36.25
2023-03-05T14:36:07.809Z,36.36
2023-03-05T14:38:43.052Z,35.71
2023-03-05T14:41:41.966Z,36.59
2023-03-05T14:44:18.050Z,36.10
2023-03-05T14:49:37.501Z,36.22
2023-03-05T14:52:26.525Z,35.75
2023-03-05T14:54:59.268Z,36.20
2023-03-05T14:57:38.117Z,36.18
2023-03-05T15:00:32.253Z,35.99
2023-03-05T15:03:22.511Z,36.64
2023-03-05T15:08:54.267Z,36.34
2023-03-05T15:11:27.061Z,36.02
2023-03-05T15:14:02.785Z,36.61
2023-03-05T15:16:35.752Z,36.00
2023-03-05T15:19:16.014Z,36.19
2023-03-05T15:22:03.764Z,36.14
2023-03-05T15:24:49.026Z,36.62
2023-03-05T15:27:21.648Z,36.30
2023-03-05T15:30:13.558Z,36.12
2023-03-05T15:33:05.950Z,35.93
2023-03-05T15:35:47.855Z,36.39
2023-03-05T15:38:20.629Z,36.46
2023-03-05T15:40:54.053Z,36.48
2023-03-05T15:43:27.053Z,35.76
2023-03-05T15:46:09.033Z,36.33
2023-03-05T15:48:44.413Z,36.18
2023-03-05T15:51:26.242Z,36.40
2023-03-05T15:54:21.471Z,35.80
2023-03-05T15:56:52.708Z,36.14
2023-03-05T15:59:33.324Z,36.21
2023-03-05T16:02:18.919Z,36.16
2023-03-05T16:05:03.442Z,35.61
2023-03-05T16:07:52.496Z,36.39
2023-03-05T16:10:51.014Z,36.72
2023-03-05T16:13:49.617Z,36.59
2023-03-05T16:16:24.171Z,36.61
2023-03-05T16:19:07.851Z,36.49
2023-03-05T16:21:50.853Z,36.71
2023-03-05T16:24:40.021Z,36.12
2023-03-05T16:29:59.331Z,36.79
2023-03-05T16:32:46.983Z,36.34
2023-03-05T16:35:20.073Z,36.60
2023-03-05T16:38:02.412Z,36.93
2023-03-05T16:41:05.856Z,36.40
2023-03-05T16:43:31.014Z,36.21
2023-03-05T16:46:03.677Z,36.22
2023-03-05T16:48:37.136Z,36.26
2023-03-05T16:51:12.075Z,36.90
2023-03-05T16:53:44.622Z,36.73
2023-03-05T16:56:17.596Z,36.67
2023-03-05T16:58:53.224Z,36.81
2023-03-05T17:01:26.503Z,36.88
2023-03-05T17:04:10.853Z,36.29
2023-03-05T17:09:33.467Z,36.11
2023-03-05T17:12:48.325Z,36.13
2023-03-05T17:15:38.739Z,36.84
2023-03-05T17:18:11.889Z,36.30
2023-03-05T17:20:45.536Z,36.34
2023-03-05T17:23:18.493Z,36.48
2023-03-05T17:25:51.395Z,36.62
2023-03-05T17:28:25.160Z,36.64
2023-03-05T17:31:01.130Z,36.72
2023-03-05T17:33:37.328Z,36.12
2023-03-05T17:36:20.096Z,36.73
2023-03-05T17:38:53.687Z,36.44
2023-03-05T17:41:26.230Z,36.50
2023-03-05T17:43:58.881Z,36.34
2023-03-05T17:46:32.238Z,36.20
2023-03-05T17:49:05.155Z,36.88
2023-03-05T17:51:37.904Z,37.14
2023-03-05T17:54:15.997Z,36.37
2023-03-05T17:56:58.425Z,36.97
2023-03-05T17:59:39.488Z,36.80
2023-03-05T18:02:13.161Z,36.82
2023-03-05T18:04:56.527Z,37.05
2023-03-05T18:07:29.065Z,36.45
2023-03-05T18:10:28.451Z,36.67
2023-03-05T18:13:07.147Z,36.81
2023-03-05T18:15:52.135Z,37.36
2023-03-05T18:18:24.805Z,36.94
2023-03-05T18:21:25.041Z,36.99
2023-03-05T18:23:57.583Z,37.21
2023-03-05T18:26:30.123Z,37.14
2023-03-05T18:29:03.535Z,36.98
2023-03-05T18:31:36.217Z,36.23
2023-03-05T18:34:09.156Z,37.07
2023-03-05T18:36:51.855Z,36.72
2023-03-05T18:39:34.014Z,37.02
2023-03-05T18:42:15.604Z,37.03
2023-03-05T18:44:51.068Z,37.10
2023-03-05T18:47:23.767Z,36.65
2023-03-05T18:49:59.784Z,37.47
2023-03-05T18:52:32.501Z,36.73
2023-03-05T18:55:21.148Z,36.82
2023-03-05T18:57:54.116Z,36.83
2023-03-05T19:00:35.257Z,36.83
2023-03-05T19:05:55.802Z,36.33
2023-03-05T19:08:34.103Z,36.59
2023-03-05T19:11:41.254Z,37.30
2023-03-05T19:14:13.865Z,36.86
2023-03-05T19:16:47.642Z,37.02
2023-03-05T19:19:37.975Z,36.58
2023-03-05T19:22:12.531Z,37.16
2023-03-05T19:25:01.556Z,36.83
2023-03-05T19:27:34.473Z,37.25
2023-03-05T19:30:19.961Z,37.19
2023-03-05T19:32:52.872Z,36.84
2023-03-05T19:35:25.678Z,37.31
2023-03-05T19:38:08.572Z,36.97
2023-03-05T19:40:53.755Z,37.05
2023-03-05T19:43:26.493Z,37.00
2023-03-05T19:46:17.422Z,36.54
2023-03-05T19:48:50.485Z,37.00
2023-03-05T19:51:26.176Z,36.90
2023-03-05T19:54:17.131Z,37.14
2023-03-05T19:56:53.591Z,37.20
2023-03-05T20:02:22.002Z,37.53
2023-03-05T20:04:55.620Z,37.88
2023-03-05T20:07:28.259Z,37.12
2023-03-05T20:10:12.826Z,36.92
2023-03-05T20:13:02.436Z,36.79
2023-03-05T20:15:35.430Z,37.74
2023-03-05T20:18:23.972Z,37.83
2023-03-05T20:21:08.725Z,37.64
2023-03-05T20:23:41.795Z,37.12
2023-03-05T20:26:34.645Z,37.81
2023-03-05T20:29:08.515Z,37.53
2023-03-05T20:35:08.808Z,37.70
2023-03-05T20:41:07.830Z,36.89
2023-03-05T20:43:45.851Z,37.22
2023-03-05T20:46:44.159Z,38.09
2023-03-05T20:49:16.975Z,37.49
2023-03-05T20:51:50.850Z,37.57
2023-03-05T20:57:23.898Z,37.56
2023-03-05T20:59:56.738Z,37.35
2023-03-05T21:02:40.243Z,37.12
2023-03-05T21:05:30.159Z,36.84
2023-03-05T21:08:17.615Z,37.28
2023-03-05T21:10:56.364Z,37.42
2023-03-05T21:13:30.789Z,37.90
2023-03-05T21:16:10.154Z,37.52
2023-03-05T21:19:03.485Z,38.14
2023-03-05T21:21:45.797Z,37.81
2023-03-05T21:24:21.423Z,38.09
2023-03-05T21:27:10.111Z,37.45
2023-03-05T21:29:50.401Z,38.09
2023-03-05T21:32:29.003Z,37.84
2023-03-05T21:35:01.949Z,37.79
2023-03-05T21:37:36.826Z,37.63
2023-03-05T21:40:35.473Z,37.60
2023-03-05T21:43:08.149Z,37.48
2023-03-05T21:48:37.120Z,37.93
2023-03-05T21:51:11.510Z,37.74
2023-03-05T21:53:59.158Z,38.16
2023-03-05T21:56:32.024Z,37.53
2023-03-05T21:59:29.924Z,37.57
2023-03-05T22:02:02.761Z,38.12
2023-03-05T22:08:08.481Z,37.33
2023-03-05T22:10:41.867Z,37.52
2023-03-05T22:13:34.109Z,38.37
2023-03-05T22:16:45.181Z,38.14
2023-03-05T22:19:17.859Z,37.60
2023-03-05T22:21:50.691Z,37.96
2023-03-05T22:24:25.477Z,37.52
2023-03-05T22:27:12.285Z,38.34
2023-03-05T22:29:45.176Z,37.87
2023-03-05T22:32:18.157Z,37.72
2023-03-05T22:34:56.138Z,37.22
2023-03-05T22:37:30.447Z,37.52
2023-03-05T22:40:04.038Z,37.40
2023-03-05T22:42:36.577Z,37.07
2023-03-05T22:45:09.966Z,37.46
2023-03-05T22:47:50.201Z,37.69
2023-03-05T22:50:22.822Z,37.24
2023-03-05T22:53:01.648Z,37.27
2023-03-05T22:55:41.569Z,37.26
2023-03-05T22:58:14.496Z,37.18
2023-03-05T23:00:48.659Z,37.06
2023-03-05T23:03:23.984Z,36.95
2023-03-05T23:05:56.677Z,37.18
2023-03-05T23:08:36.412Z,37.37
2023-03-05T23:11:22.218Z,37.22
2023-03-05T23:14:09.782Z,36.97
2023-03-05T23:16:42.552Z,37.68
2023-03-05T23:19:24.381Z,36.96
2023-03-05T23:21:57.139Z,36.86
2023-03-05T23:24:44.348Z,37.12
2023-03-05T23:27:19.098Z,36.86
2023-03-05T23:30:21.502Z,37.01
2023-03-05T23:33:07.785Z,37.86
2023-03-05T23:35:53.716Z,37.08
2023-03-05T23:38:29.457Z,37.41
2023-03-05T23:41:06.909Z,37.03
2023-03-05T23:43:57.616Z,37.18
2023-03-05T23:46:30.860Z,37.18
2023-03-05T23:49:12.549Z,37.85
2023-03-05T23:51:46.151Z,37.69
2023-03-05T23:54:30.975Z,37.59
2023-03-05T23:57:03.885Z,37.47
2023-03-05T23:59:48.628Z,38.29
